sensor_id;sensor_type;location;lat;lon;timestamp;pressure;altitude;pressure_sealevel;temperature
4421;BMP180;11824;51.178;13.546;2023-07-13T00:01:07;99979.00;;;23.10
4421;BMP180;11824;51.178;13.546;2023-07-13T00:03:34;99977.00;;;23.10
4421;BMP180;11824;51.178;13.546;2023-07-13T00:06:03;99986.00;;;23.10
4421;BMP180;11824;51.178;13.546;2023-07-13T00:08:32;99990.00;;;23.00
4421;BMP180;11824;51.178;13.546;2023-07-13T00:11:00;99993.00;;;23.00
4421;BMP180;11824;51.178;13.546;2023-07-13T00:13:27;99985.00;;;23.00
4421;BMP180;11824;51.178;13.546;2023-07-13T00:15:57;99979.00;;;23.00
4421;BMP180;11824;51.178;13.546;2023-07-13T00:18:24;99978.00;;;22.90
4421;BMP180;11824;51.178;13.546;2023-07-13T00:20:52;99988.00;;;22.90
4421;BMP180;11824;51.178;13.546;2023-07-13T00:23:22;100000.00;;;22.90
4421;BMP180;11824;51.178;13.546;2023-07-13T00:25:49;100010.00;;;22.80
4421;BMP180;11824;51.178;13.546;2023-07-13T00:28:18;100007.00;;;22.80
4421;BMP180;11824;51.178;13.546;2023-07-13T00:30:45;100010.00;;;22.80
4421;BMP180;11824;51.178;13.546;2023-07-13T00:33:13;100007.00;;;22.70
4421;BMP180;11824;51.178;13.546;2023-07-13T00:35:45;100010.00;;;22.70
4421;BMP180;11824;51.178;13.546;2023-07-13T00:38:13;100021.00;;;22.70
4421;BMP180;11824;51.178;13.546;2023-07-13T00:40:41;100026.00;;;22.60
4421;BMP180;11824;51.178;13.546;2023-07-13T00:43:13;100039.00;;;22.60
4421;BMP180;11824;51.178;13.546;2023-07-13T00:46:18;100049.00;;;22.60
4421;BMP180;11824;51.178;13.546;2023-07-13T00:48:48;100045.00;;;22.60
4421;BMP180;11824;51.178;13.546;2023-07-13T00:51:18;100047.00;;;22.60
4421;BMP180;11824;51.178;13.546;2023-07-13T00:53:47;100053.00;;;22.60
4421;BMP180;11824;51.178;13.546;2023-07-13T00:56:16;100063.00;;;22.60
4421;BMP180;11824;51.178;13.546;2023-07-13T00:58:43;100065.00;;;22.60
4421;BMP180;11824;51.178;13.546;2023-07-13T01:01:11;100075.00;;;22.60
4421;BMP180;11824;51.178;13.546;2023-07-13T01:03:40;100067.00;;;22.60
4421;BMP180;11824;51.178;13.546;2023-07-13T01:06:08;100067.00;;;22.60
4421;BMP180;11824;51.178;13.546;2023-07-13T01:08:36;100053.00;;;22.60
4421;BMP180;11824;51.178;13.546;2023-07-13T01:11:03;100030.00;;;22.60
4421;BMP180;11824;51.178;13.546;2023-07-13T01:13:31;100017.00;;;22.60
4421;BMP180;11824;51.178;13.546;2023-07-13T01:16:02;100020.00;;;22.50
4421;BMP180;11824;51.178;13.546;2023-07-13T01:18:32;100015.00;;;22.40
4421;BMP180;11824;51.178;13.546;2023-07-13T01:21:03;100021.00;;;22.30
4421;BMP180;11824;51.178;13.546;2023-07-13T01:23:32;100029.00;;;22.20
4421;BMP180;11824;51.178;13.546;2023-07-13T01:25:59;100029.00;;;22.20
4421;BMP180;11824;51.178;13.546;2023-07-13T01:28:28;100036.00;;;22.10
4421;BMP180;11824;51.178;13.546;2023-07-13T01:30:57;100027.00;;;22.10
4421;BMP180;11824;51.178;13.546;2023-07-13T01:33:25;100028.00;;;22.00
4421;BMP180;11824;51.178;13.546;2023-07-13T01:35:53;100021.00;;;22.00
4421;BMP180;11824;51.178;13.546;2023-07-13T01:38:22;100023.00;;;22.00
4421;BMP180;11824;51.178;13.546;2023-07-13T01:40:50;100010.00;;;22.00
4421;BMP180;11824;51.178;13.546;2023-07-13T01:43:18;100011.00;;;21.90
4421;BMP180;11824;51.178;13.546;2023-07-13T01:45:45;100013.00;;;21.90
4421;BMP180;11824;51.178;13.546;2023-07-13T01:48:13;100018.00;;;21.90
4421;BMP180;11824;51.178;13.546;2023-07-13T01:50:41;100017.00;;;21.80
4421;BMP180;11824;51.178;13.546;2023-07-13T01:53:09;100017.00;;;21.80
4421;BMP180;11824;51.178;13.546;2023-07-13T01:55:38;100018.00;;;21.80
4421;BMP180;11824;51.178;13.546;2023-07-13T01:58:05;100019.00;;;21.70
4421;BMP180;11824;51.178;13.546;2023-07-13T02:00:33;100010.00;;;21.70
4421;BMP180;11824;51.178;13.546;2023-07-13T02:03:01;100014.00;;;21.70
4421;BMP180;11824;51.178;13.546;2023-07-13T02:05:28;100014.00;;;21.70
4421;BMP180;11824;51.178;13.546;2023-07-13T02:07:55;100024.00;;;21.60
4421;BMP180;11824;51.178;13.546;2023-07-13T02:10:23;100024.00;;;21.60
4421;BMP180;11824;51.178;13.546;2023-07-13T02:12:51;100016.00;;;21.60
4421;BMP180;11824;51.178;13.546;2023-07-13T02:15:18;100019.00;;;21.60
4421;BMP180;11824;51.178;13.546;2023-07-13T02:17:46;100034.00;;;21.50
4421;BMP180;11824;51.178;13.546;2023-07-13T02:20:14;100022.00;;;21.50
4421;BMP180;11824;51.178;13.546;2023-07-13T02:22:41;100033.00;;;21.40
4421;BMP180;11824;51.178;13.546;2023-07-13T02:25:09;100030.00;;;21.40
4421;BMP180;11824;51.178;13.546;2023-07-13T02:27:36;100034.00;;;21.40
4421;BMP180;11824;51.178;13.546;2023-07-13T02:30:05;100029.00;;;21.40
4421;BMP180;11824;51.178;13.546;2023-07-13T02:32:33;100027.00;;;21.40
4421;BMP180;11824;51.178;13.546;2023-07-13T02:35:02;100029.00;;;21.30
4421;BMP180;11824;51.178;13.546;2023-07-13T02:37:30;100028.00;;;21.30
4421;BMP180;11824;51.178;13.546;2023-07-13T02:39:57;100032.00;;;21.30
4421;BMP180;11824;51.178;13.546;2023-07-13T02:42:25;100029.00;;;21.20
4421;BMP180;11824;51.178;13.546;2023-07-13T02:44:52;100032.00;;;21.20
4421;BMP180;11824;51.178;13.546;2023-07-13T02:47:20;100030.00;;;21.20
4421;BMP180;11824;51.178;13.546;2023-07-13T02:49:47;100034.00;;;21.10
4421;BMP180;11824;51.178;13.546;2023-07-13T02:52:15;100029.00;;;21.10
4421;BMP180;11824;51.178;13.546;2023-07-13T02:54:42;100029.00;;;21.00
4421;BMP180;11824;51.178;13.546;2023-07-13T02:57:09;100035.00;;;20.90
4421;BMP180;11824;51.178;13.546;2023-07-13T02:59:37;100038.00;;;20.90
4421;BMP180;11824;51.178;13.546;2023-07-13T03:02:05;100043.00;;;20.80
4421;BMP180;11824;51.178;13.546;2023-07-13T03:04:34;100044.00;;;20.70
4421;BMP180;11824;51.178;13.546;2023-07-13T03:07:02;100058.00;;;20.60
4421;BMP180;11824;51.178;13.546;2023-07-13T03:09:30;100045.00;;;20.60
4421;BMP180;11824;51.178;13.546;2023-07-13T03:11:57;100048.00;;;20.50
4421;BMP180;11824;51.178;13.546;2023-07-13T03:14:25;100053.00;;;20.50
4421;BMP180;11824;51.178;13.546;2023-07-13T03:16:52;100056.00;;;20.50
4421;BMP180;11824;51.178;13.546;2023-07-13T03:19:20;100056.00;;;20.40
4421;BMP180;11824;51.178;13.546;2023-07-13T03:21:48;100049.00;;;20.40
4421;BMP180;11824;51.178;13.546;2023-07-13T03:24:16;100050.00;;;20.40
4421;BMP180;11824;51.178;13.546;2023-07-13T03:26:43;100060.00;;;20.40
4421;BMP180;11824;51.178;13.546;2023-07-13T03:29:11;100065.00;;;20.30
4421;BMP180;11824;51.178;13.546;2023-07-13T03:31:40;100066.00;;;20.30
4421;BMP180;11824;51.178;13.546;2023-07-13T03:34:08;100069.00;;;20.30
4421;BMP180;11824;51.178;13.546;2023-07-13T03:36:35;100066.00;;;20.30
4421;BMP180;11824;51.178;13.546;2023-07-13T03:39:04;100063.00;;;20.30
4421;BMP180;11824;51.178;13.546;2023-07-13T03:41:33;100061.00;;;20.30
4421;BMP180;11824;51.178;13.546;2023-07-13T03:44:00;100057.00;;;20.40
4421;BMP180;11824;51.178;13.546;2023-07-13T03:46:28;100074.00;;;20.40
4421;BMP180;11824;51.178;13.546;2023-07-13T03:48:55;100073.00;;;20.40
4421;BMP180;11824;51.178;13.546;2023-07-13T03:51:23;100077.00;;;20.50
4421;BMP180;11824;51.178;13.546;2023-07-13T03:53:50;100085.00;;;20.50
4421;BMP180;11824;51.178;13.546;2023-07-13T03:56:19;100081.00;;;20.60
4421;BMP180;11824;51.178;13.546;2023-07-13T03:58:47;100086.00;;;20.60
4421;BMP180;11824;51.178;13.546;2023-07-13T04:01:16;100080.00;;;20.60
4421;BMP180;11824;51.178;13.546;2023-07-13T04:03:44;100079.00;;;20.70
4421;BMP180;11824;51.178;13.546;2023-07-13T04:06:17;100085.00;;;20.70
4421;BMP180;11824;51.178;13.546;2023-07-13T04:08:48;100092.00;;;20.70
4421;BMP180;11824;51.178;13.546;2023-07-13T04:11:18;100099.00;;;20.80
4421;BMP180;11824;51.178;13.546;2023-07-13T04:13:46;100100.00;;;20.80
4421;BMP180;11824;51.178;13.546;2023-07-13T04:16:15;100107.00;;;20.90
4421;BMP180;11824;51.178;13.546;2023-07-13T04:18:43;100110.00;;;20.90
4421;BMP180;11824;51.178;13.546;2023-07-13T04:21:11;100115.00;;;21.00
4421;BMP180;11824;51.178;13.546;2023-07-13T04:23:39;100107.00;;;21.20
4421;BMP180;11824;51.178;13.546;2023-07-13T04:26:07;100103.00;;;21.40
4421;BMP180;11824;51.178;13.546;2023-07-13T04:28:35;100110.00;;;21.50
4421;BMP180;11824;51.178;13.546;2023-07-13T04:31:02;100102.00;;;21.70
4421;BMP180;11824;51.178;13.546;2023-07-13T04:33:30;100104.00;;;21.90
4421;BMP180;11824;51.178;13.546;2023-07-13T04:35:58;100107.00;;;22.10
4421;BMP180;11824;51.178;13.546;2023-07-13T04:38:29;100106.00;;;22.30
4421;BMP180;11824;51.178;13.546;2023-07-13T04:40:59;100107.00;;;22.60
4421;BMP180;11824;51.178;13.546;2023-07-13T04:43:27;100103.00;;;23.00
4421;BMP180;11824;51.178;13.546;2023-07-13T04:45:56;100108.00;;;23.30
4421;BMP180;11824;51.178;13.546;2023-07-13T04:48:24;100109.00;;;23.60
4421;BMP180;11824;51.178;13.546;2023-07-13T04:50:55;100107.00;;;23.90
4421;BMP180;11824;51.178;13.546;2023-07-13T04:53:23;100106.00;;;24.20
4421;BMP180;11824;51.178;13.546;2023-07-13T04:55:51;100108.00;;;24.60
4421;BMP180;11824;51.178;13.546;2023-07-13T04:58:19;100117.00;;;24.90
4421;BMP180;11824;51.178;13.546;2023-07-13T05:00:46;100121.00;;;25.20
4421;BMP180;11824;51.178;13.546;2023-07-13T05:03:14;100113.00;;;25.40
4421;BMP180;11824;51.178;13.546;2023-07-13T05:05:42;100121.00;;;25.50
4421;BMP180;11824;51.178;13.546;2023-07-13T05:08:09;100118.00;;;25.50
4421;BMP180;11824;51.178;13.546;2023-07-13T05:10:36;100118.00;;;25.50
4421;BMP180;11824;51.178;13.546;2023-07-13T05:13:04;100120.00;;;25.70
4421;BMP180;11824;51.178;13.546;2023-07-13T05:15:32;100118.00;;;25.80
4421;BMP180;11824;51.178;13.546;2023-07-13T05:18:00;100117.00;;;25.70
4421;BMP180;11824;51.178;13.546;2023-07-13T05:20:29;100124.00;;;25.70
4421;BMP180;11824;51.178;13.546;2023-07-13T05:22:57;100118.00;;;25.60
4421;BMP180;11824;51.178;13.546;2023-07-13T05:25:24;100124.00;;;25.60
4421;BMP180;11824;51.178;13.546;2023-07-13T05:27:52;100122.00;;;25.50
4421;BMP180;11824;51.178;13.546;2023-07-13T05:30:19;100122.00;;;25.40
4421;BMP180;11824;51.178;13.546;2023-07-13T05:32:47;100129.00;;;25.30
4421;BMP180;11824;51.178;13.546;2023-07-13T05:35:14;100124.00;;;25.20
4421;BMP180;11824;51.178;13.546;2023-07-13T05:37:42;100132.00;;;25.00
4421;BMP180;11824;51.178;13.546;2023-07-13T05:40:10;100130.00;;;24.90
4421;BMP180;11824;51.178;13.546;2023-07-13T05:42:37;100129.00;;;24.80
4421;BMP180;11824;51.178;13.546;2023-07-13T05:45:05;100139.00;;;24.70
4421;BMP180;11824;51.178;13.546;2023-07-13T05:47:33;100141.00;;;24.60
4421;BMP180;11824;51.178;13.546;2023-07-13T05:50:00;100144.00;;;24.60
4421;BMP180;11824;51.178;13.546;2023-07-13T05:52:31;100154.00;;;24.60
4421;BMP180;11824;51.178;13.546;2023-07-13T05:54:59;100146.00;;;24.60
4421;BMP180;11824;51.178;13.546;2023-07-13T05:57:26;100144.00;;;24.70
4421;BMP180;11824;51.178;13.546;2023-07-13T05:59:54;100148.00;;;24.80
4421;BMP180;11824;51.178;13.546;2023-07-13T06:02:21;100139.00;;;25.00
4421;BMP180;11824;51.178;13.546;2023-07-13T06:04:49;100141.00;;;25.30
4421;BMP180;11824;51.178;13.546;2023-07-13T06:07:19;100149.00;;;26.00
4421;BMP180;11824;51.178;13.546;2023-07-13T06:09:46;100151.00;;;26.80
4421;BMP180;11824;51.178;13.546;2023-07-13T06:12:14;100146.00;;;27.60
4421;BMP180;11824;51.178;13.546;2023-07-13T06:14:42;100152.00;;;28.50
4421;BMP180;11824;51.178;13.546;2023-07-13T06:17:09;100158.00;;;29.20
4421;BMP180;11824;51.178;13.546;2023-07-13T06:19:37;100161.00;;;29.70
4421;BMP180;11824;51.178;13.546;2023-07-13T06:22:05;100167.00;;;29.90
4421;BMP180;11824;51.178;13.546;2023-07-13T06:24:32;100163.00;;;30.10
4421;BMP180;11824;51.178;13.546;2023-07-13T06:26:59;100165.00;;;30.10
4421;BMP180;11824;51.178;13.546;2023-07-13T06:29:27;100172.00;;;30.10
4421;BMP180;11824;51.178;13.546;2023-07-13T06:31:55;100171.00;;;30.30
4421;BMP180;11824;51.178;13.546;2023-07-13T06:34:22;100174.00;;;30.50
4421;BMP180;11824;51.178;13.546;2023-07-13T06:36:49;100177.00;;;30.50
4421;BMP180;11824;51.178;13.546;2023-07-13T06:39:17;100170.00;;;30.50
4421;BMP180;11824;51.178;13.546;2023-07-13T06:41:44;100173.00;;;30.80
4421;BMP180;11824;51.178;13.546;2023-07-13T06:44:11;100184.00;;;31.20
4421;BMP180;11824;51.178;13.546;2023-07-13T06:46:39;100180.00;;;31.60
4421;BMP180;11824;51.178;13.546;2023-07-13T06:49:07;100191.00;;;31.90
4421;BMP180;11824;51.178;13.546;2023-07-13T06:51:35;100189.00;;;32.10
4421;BMP180;11824;51.178;13.546;2023-07-13T06:54:02;100184.00;;;32.20
4421;BMP180;11824;51.178;13.546;2023-07-13T06:56:30;100189.00;;;32.30
4421;BMP180;11824;51.178;13.546;2023-07-13T06:58:57;100193.00;;;32.20
4421;BMP180;11824;51.178;13.546;2023-07-13T07:01:24;100204.00;;;32.00
4421;BMP180;11824;51.178;13.546;2023-07-13T07:03:52;100196.00;;;31.70
4421;BMP180;11824;51.178;13.546;2023-07-13T07:06:21;100202.00;;;31.30
4421;BMP180;11824;51.178;13.546;2023-07-13T07:08:50;100197.00;;;31.00
4421;BMP180;11824;51.178;13.546;2023-07-13T07:11:20;100197.00;;;30.70
4421;BMP180;11824;51.178;13.546;2023-07-13T07:13:49;100204.00;;;30.50
4421;BMP180;11824;51.178;13.546;2023-07-13T07:16:17;100207.00;;;30.30
4421;BMP180;11824;51.178;13.546;2023-07-13T07:18:44;100202.00;;;30.10
4421;BMP180;11824;51.178;13.546;2023-07-13T07:21:13;100210.00;;;30.00
4421;BMP180;11824;51.178;13.546;2023-07-13T07:23:41;100204.00;;;29.90
4421;BMP180;11824;51.178;13.546;2023-07-13T07:26:09;100216.00;;;29.90
4421;BMP180;11824;51.178;13.546;2023-07-13T07:28:36;100219.00;;;29.80
4421;BMP180;11824;51.178;13.546;2023-07-13T07:31:07;100216.00;;;29.70
4421;BMP180;11824;51.178;13.546;2023-07-13T07:33:38;100209.00;;;29.50
4421;BMP180;11824;51.178;13.546;2023-07-13T07:36:05;100214.00;;;29.40
4421;BMP180;11824;51.178;13.546;2023-07-13T07:38:36;100215.00;;;29.30
4421;BMP180;11824;51.178;13.546;2023-07-13T07:41:04;100220.00;;;29.20
4421;BMP180;11824;51.178;13.546;2023-07-13T07:43:35;100215.00;;;29.10
4421;BMP180;11824;51.178;13.546;2023-07-13T07:46:02;100226.00;;;29.00
4421;BMP180;11824;51.178;13.546;2023-07-13T07:48:30;100217.00;;;28.80
4421;BMP180;11824;51.178;13.546;2023-07-13T07:50:58;100218.00;;;28.70
4421;BMP180;11824;51.178;13.546;2023-07-13T07:53:25;100217.00;;;28.60
4421;BMP180;11824;51.178;13.546;2023-07-13T07:55:53;100208.00;;;28.60
4421;BMP180;11824;51.178;13.546;2023-07-13T07:58:23;100209.00;;;28.70
4421;BMP180;11824;51.178;13.546;2023-07-13T08:00:53;100203.00;;;28.80
4421;BMP180;11824;51.178;13.546;2023-07-13T08:03:24;100208.00;;;28.80
4421;BMP180;11824;51.178;13.546;2023-07-13T08:05:54;100204.00;;;28.80
4421;BMP180;11824;51.178;13.546;2023-07-13T08:08:24;100209.00;;;28.90
4421;BMP180;11824;51.178;13.546;2023-07-13T08:10:53;100203.00;;;28.90
4421;BMP180;11824;51.178;13.546;2023-07-13T08:13:26;100206.00;;;28.90
4421;BMP180;11824;51.178;13.546;2023-07-13T08:15:53;100202.00;;;29.00
4421;BMP180;11824;51.178;13.546;2023-07-13T08:18:20;100204.00;;;29.10
4421;BMP180;11824;51.178;13.546;2023-07-13T08:20:48;100213.00;;;29.30
4421;BMP180;11824;51.178;13.546;2023-07-13T08:23:15;100217.00;;;29.40
4421;BMP180;11824;51.178;13.546;2023-07-13T08:25:50;100205.00;;;29.60
4421;BMP180;11824;51.178;13.546;2023-07-13T08:28:18;100216.00;;;29.80
4421;BMP180;11824;51.178;13.546;2023-07-13T08:30:46;100218.00;;;29.80
4421;BMP180;11824;51.178;13.546;2023-07-13T08:33:15;100211.00;;;29.80
4421;BMP180;11824;51.178;13.546;2023-07-13T08:35:45;100197.00;;;29.80
4421;BMP180;11824;51.178;13.546;2023-07-13T08:38:12;100203.00;;;29.70
4421;BMP180;11824;51.178;13.546;2023-07-13T08:40:40;100206.00;;;29.70
4421;BMP180;11824;51.178;13.546;2023-07-13T08:43:12;100209.00;;;29.60
4421;BMP180;11824;51.178;13.546;2023-07-13T08:45:44;100206.00;;;29.60
4421;BMP180;11824;51.178;13.546;2023-07-13T08:48:19;100217.00;;;29.50
4421;BMP180;11824;51.178;13.546;2023-07-13T08:50:51;100219.00;;;29.50
4421;BMP180;11824;51.178;13.546;2023-07-13T08:53:42;100212.00;;;29.40
4421;BMP180;11824;51.178;13.546;2023-07-13T08:56:23;100214.00;;;29.30
4421;BMP180;11824;51.178;13.546;2023-07-13T08:58:55;100216.00;;;29.20
4421;BMP180;11824;51.178;13.546;2023-07-13T09:01:28;100225.00;;;29.10
4421;BMP180;11824;51.178;13.546;2023-07-13T09:04:02;100219.00;;;28.90
4421;BMP180;11824;51.178;13.546;2023-07-13T09:06:38;100219.00;;;28.70
4421;BMP180;11824;51.178;13.546;2023-07-13T09:09:14;100220.00;;;28.60
4421;BMP180;11824;51.178;13.546;2023-07-13T09:11:52;100222.00;;;28.50
4421;BMP180;11824;51.178;13.546;2023-07-13T09:14:38;100217.00;;;28.40
4421;BMP180;11824;51.178;13.546;2023-07-13T09:17:22;100223.00;;;28.30
4421;BMP180;11824;51.178;13.546;2023-07-13T09:19:56;100220.00;;;28.10
4421;BMP180;11824;51.178;13.546;2023-07-13T09:22:25;100224.00;;;28.00
4421;BMP180;11824;51.178;13.546;2023-07-13T09:25:04;100224.00;;;28.00
4421;BMP180;11824;51.178;13.546;2023-07-13T09:27:35;100221.00;;;28.00
4421;BMP180;11824;51.178;13.546;2023-07-13T09:30:24;100226.00;;;28.00
4421;BMP180;11824;51.178;13.546;2023-07-13T09:32:54;100232.00;;;28.00
4421;BMP180;11824;51.178;13.546;2023-07-13T09:35:27;100245.00;;;28.00
4421;BMP180;11824;51.178;13.546;2023-07-13T09:37:59;100240.00;;;27.90
4421;BMP180;11824;51.178;13.546;2023-07-13T09:40:35;100232.00;;;27.90
4421;BMP180;11824;51.178;13.546;2023-07-13T09:43:04;100234.00;;;27.90
4421;BMP180;11824;51.178;13.546;2023-07-13T09:45:34;100232.00;;;28.00
4421;BMP180;11824;51.178;13.546;2023-07-13T09:48:11;100235.00;;;27.90
4421;BMP180;11824;51.178;13.546;2023-07-13T09:50:40;100228.00;;;27.90
4421;BMP180;11824;51.178;13.546;2023-07-13T09:53:12;100227.00;;;28.00
4421;BMP180;11824;51.178;13.546;2023-07-13T09:55:42;100231.00;;;28.00
4421;BMP180;11824;51.178;13.546;2023-07-13T09:58:13;100232.00;;;28.10
4421;BMP180;11824;51.178;13.546;2023-07-13T10:00:42;100242.00;;;28.30
4421;BMP180;11824;51.178;13.546;2023-07-13T10:03:18;100230.00;;;28.40
4421;BMP180;11824;51.178;13.546;2023-07-13T10:05:48;100225.00;;;28.50
4421;BMP180;11824;51.178;13.546;2023-07-13T10:08:21;100225.00;;;28.70
4421;BMP180;11824;51.178;13.546;2023-07-13T10:10:54;100217.00;;;28.90
4421;BMP180;11824;51.178;13.546;2023-07-13T10:13:32;100225.00;;;29.10
4421;BMP180;11824;51.178;13.546;2023-07-13T10:16:02;100227.00;;;29.40
4421;BMP180;11824;51.178;13.546;2023-07-13T10:18:39;100234.00;;;29.50
4421;BMP180;11824;51.178;13.546;2023-07-13T10:21:13;100236.00;;;29.60
4421;BMP180;11824;51.178;13.546;2023-07-13T10:23:47;100240.00;;;29.60
4421;BMP180;11824;51.178;13.546;2023-07-13T10:26:19;100240.00;;;29.60
4421;BMP180;11824;51.178;13.546;2023-07-13T10:28:52;100242.00;;;29.60
4421;BMP180;11824;51.178;13.546;2023-07-13T10:31:22;100245.00;;;29.60
4421;BMP180;11824;51.178;13.546;2023-07-13T10:33:50;100250.00;;;29.60
4421;BMP180;11824;51.178;13.546;2023-07-13T10:36:27;100240.00;;;29.60
4421;BMP180;11824;51.178;13.546;2023-07-13T10:41:27;100243.00;;;29.70
4421;BMP180;11824;51.178;13.546;2023-07-13T10:43:56;100253.00;;;29.80
4421;BMP180;11824;51.178;13.546;2023-07-13T10:46:26;100243.00;;;29.80
4421;BMP180;11824;51.178;13.546;2023-07-13T10:48:57;100246.00;;;29.80
4421;BMP180;11824;51.178;13.546;2023-07-13T10:51:26;100249.00;;;29.90
4421;BMP180;11824;51.178;13.546;2023-07-13T10:54:17;100250.00;;;30.00
4421;BMP180;11824;51.178;13.546;2023-07-13T10:56:49;100254.00;;;30.00
4421;BMP180;11824;51.178;13.546;2023-07-13T10:59:23;100252.00;;;29.80
4421;BMP180;11824;51.178;13.546;2023-07-13T11:01:56;100254.00;;;29.60
4421;BMP180;11824;51.178;13.546;2023-07-13T11:04:27;100253.00;;;29.40
4421;BMP180;11824;51.178;13.546;2023-07-13T11:06:58;100248.00;;;29.30
4421;BMP180;11824;51.178;13.546;2023-07-13T11:09:38;100253.00;;;29.20
4421;BMP180;11824;51.178;13.546;2023-07-13T11:12:26;100250.00;;;29.20
4421;BMP180;11824;51.178;13.546;2023-07-13T11:15:06;100244.00;;;29.30
4421;BMP180;11824;51.178;13.546;2023-07-13T11:20:39;100258.00;;;29.30
4421;BMP180;11824;51.178;13.546;2023-07-13T11:23:19;100256.00;;;29.30
4421;BMP180;11824;51.178;13.546;2023-07-13T11:25:48;100252.00;;;29.30
4421;BMP180;11824;51.178;13.546;2023-07-13T11:28:24;100250.00;;;29.40
4421;BMP180;11824;51.178;13.546;2023-07-13T11:31:02;100234.00;;;29.40
4421;BMP180;11824;51.178;13.546;2023-07-13T11:33:56;100247.00;;;29.50
4421;BMP180;11824;51.178;13.546;2023-07-13T11:36:31;100233.00;;;29.50
4421;BMP180;11824;51.178;13.546;2023-07-13T11:39:02;100232.00;;;29.50
4421;BMP180;11824;51.178;13.546;2023-07-13T11:41:35;100235.00;;;29.40
4421;BMP180;11824;51.178;13.546;2023-07-13T11:44:11;100229.00;;;29.40
4421;BMP180;11824;51.178;13.546;2023-07-13T11:46:38;100234.00;;;29.30
4421;BMP180;11824;51.178;13.546;2023-07-13T11:49:07;100236.00;;;29.30
4421;BMP180;11824;51.178;13.546;2023-07-13T11:51:36;100222.00;;;29.20
4421;BMP180;11824;51.178;13.546;2023-07-13T11:54:06;100234.00;;;29.10
4421;BMP180;11824;51.178;13.546;2023-07-13T11:56:35;100237.00;;;29.10
4421;BMP180;11824;51.178;13.546;2023-07-13T11:59:06;100228.00;;;29.00
4421;BMP180;11824;51.178;13.546;2023-07-13T12:01:34;100223.00;;;29.00
4421;BMP180;11824;51.178;13.546;2023-07-13T12:04:04;100226.00;;;28.90
4421;BMP180;11824;51.178;13.546;2023-07-13T12:06:34;100227.00;;;28.90
4421;BMP180;11824;51.178;13.546;2023-07-13T12:09:12;100213.00;;;28.90
4421;BMP180;11824;51.178;13.546;2023-07-13T12:11:42;100210.00;;;29.00
4421;BMP180;11824;51.178;13.546;2023-07-13T12:14:14;100216.00;;;29.00
4421;BMP180;11824;51.178;13.546;2023-07-13T12:16:42;100201.00;;;29.00
4421;BMP180;11824;51.178;13.546;2023-07-13T12:19:18;100211.00;;;29.00
4421;BMP180;11824;51.178;13.546;2023-07-13T12:21:47;100204.00;;;29.20
4421;BMP180;11824;51.178;13.546;2023-07-13T12:24:16;100203.00;;;29.40
4421;BMP180;11824;51.178;13.546;2023-07-13T12:26:44;100198.00;;;29.50
4421;BMP180;11824;51.178;13.546;2023-07-13T12:29:16;100197.00;;;29.50
4421;BMP180;11824;51.178;13.546;2023-07-13T12:31:46;100209.00;;;29.60
4421;BMP180;11824;51.178;13.546;2023-07-13T12:34:15;100204.00;;;29.70
4421;BMP180;11824;51.178;13.546;2023-07-13T12:36:47;100205.00;;;29.80
4421;BMP180;11824;51.178;13.546;2023-07-13T12:39:19;100209.00;;;30.00
4421;BMP180;11824;51.178;13.546;2023-07-13T12:41:48;100197.00;;;30.10
4421;BMP180;11824;51.178;13.546;2023-07-13T12:44:18;100206.00;;;30.30
4421;BMP180;11824;51.178;13.546;2023-07-13T12:46:57;100209.00;;;30.50
4421;BMP180;11824;51.178;13.546;2023-07-13T12:49:28;100211.00;;;30.50
4421;BMP180;11824;51.178;13.546;2023-07-13T12:51:57;100214.00;;;30.50
4421;BMP180;11824;51.178;13.546;2023-07-13T12:54:28;100215.00;;;30.60
4421;BMP180;11824;51.178;13.546;2023-07-13T12:56:56;100208.00;;;30.50
4421;BMP180;11824;51.178;13.546;2023-07-13T12:59:28;100218.00;;;30.50
4421;BMP180;11824;51.178;13.546;2023-07-13T13:01:56;100203.00;;;30.50
4421;BMP180;11824;51.178;13.546;2023-07-13T13:04:24;100216.00;;;30.50
4421;BMP180;11824;51.178;13.546;2023-07-13T13:07:02;100210.00;;;30.50
4421;BMP180;11824;51.178;13.546;2023-07-13T13:09:32;100213.00;;;30.60
4421;BMP180;11824;51.178;13.546;2023-07-13T13:12:00;100223.00;;;30.70
4421;BMP180;11824;51.178;13.546;2023-07-13T13:14:27;100218.00;;;30.70
4421;BMP180;11824;51.178;13.546;2023-07-13T13:16:55;100216.00;;;30.60
4421;BMP180;11824;51.178;13.546;2023-07-13T13:19:26;100222.00;;;30.60
4421;BMP180;11824;51.178;13.546;2023-07-13T13:21:55;100211.00;;;30.60
4421;BMP180;11824;51.178;13.546;2023-07-13T13:24:26;100208.00;;;30.70
4421;BMP180;11824;51.178;13.546;2023-07-13T13:26:55;100201.00;;;30.70
4421;BMP180;11824;51.178;13.546;2023-07-13T13:29:24;100204.00;;;30.70
4421;BMP180;11824;51.178;13.546;2023-07-13T13:31:53;100208.00;;;30.70
4421;BMP180;11824;51.178;13.546;2023-07-13T13:34:21;100218.00;;;30.70
4421;BMP180;11824;51.178;13.546;2023-07-13T13:36:50;100215.00;;;30.60
4421;BMP180;11824;51.178;13.546;2023-07-13T13:39:22;100222.00;;;30.60
4421;BMP180;11824;51.178;13.546;2023-07-13T13:41:51;100211.00;;;30.50
4421;BMP180;11824;51.178;13.546;2023-07-13T13:44:21;100216.00;;;30.40
4421;BMP180;11824;51.178;13.546;2023-07-13T13:46:51;100224.00;;;30.30
4421;BMP180;11824;51.178;13.546;2023-07-13T13:49:21;100216.00;;;30.20
4421;BMP180;11824;51.178;13.546;2023-07-13T13:51:49;100222.00;;;30.20
4421;BMP180;11824;51.178;13.546;2023-07-13T13:54:19;100216.00;;;30.20
4421;BMP180;11824;51.178;13.546;2023-07-13T13:56:48;100218.00;;;30.20
4421;BMP180;11824;51.178;13.546;2023-07-13T13:59:16;100218.00;;;30.30
4421;BMP180;11824;51.178;13.546;2023-07-13T14:01:46;100215.00;;;30.30
4421;BMP180;11824;51.178;13.546;2023-07-13T14:04:17;100214.00;;;30.20
4421;BMP180;11824;51.178;13.546;2023-07-13T14:06:45;100209.00;;;30.20
4421;BMP180;11824;51.178;13.546;2023-07-13T14:09:14;100226.00;;;30.10
4421;BMP180;11824;51.178;13.546;2023-07-13T14:11:43;100218.00;;;30.00
4421;BMP180;11824;51.178;13.546;2023-07-13T14:14:14;100215.00;;;30.00
4421;BMP180;11824;51.178;13.546;2023-07-13T14:16:44;100217.00;;;29.90